createdAt,value
2018-07-15T00:01:45.322Z,97754.63
2018-07-15T00:04:13.943Z,97748.20
2018-07-15T00:06:42.629Z,97747.48
2018-07-15T00:09:12.334Z,97739.50
2018-07-15T00:11:41.467Z,97743.33
2018-07-15T00:14:10.163Z,97743.33
2018-07-15T00:16:39.551Z,97745.63
2018-07-15T00:19:08.341Z,97734.88
2018-07-15T00:21:36.938Z,97735.05
2018-07-15T00:24:05.607Z,97739.01
2018-07-15T00:26:35.112Z,97735.44
2018-07-15T00:29:03.793Z,97734.02
2018-07-15T00:31:32.492Z,97732.91
2018-07-15T00:34:01.796Z,97732.56
2018-07-15T00:36:31.148Z,97729.27
2018-07-15T00:38:59.742Z,97729.92
2018-07-15T00:41:28.431Z,97727.41
2018-07-15T00:43:57.798Z,97723.66
2018-07-15T00:46:26.984Z,97728.03
2018-07-15T00:48:56.513Z,97727.55
2018-07-15T00:51:26.077Z,97724.67
2018-07-15T00:53:54.708Z,97726.48
2018-07-15T00:56:25.780Z,97726.39
2018-07-15T00:58:54.428Z,97728.68
2018-07-15T01:01:23.384Z,97725.16
2018-07-15T01:03:52.682Z,97729.48
2018-07-15T01:06:22.237Z,97733.93
2018-07-15T01:08:50.955Z,97736.14
2018-07-15T01:11:19.513Z,97734.11
2018-07-15T01:13:48.129Z,97731.38
2018-07-15T01:16:17.493Z,97730.56
2018-07-15T01:18:46.783Z,97726.51
2018-07-15T01:21:16.473Z,97719.77
2018-07-15T01:23:45.039Z,97720.20
2018-07-15T01:26:14.775Z,97724.42
2018-07-15T01:28:44.473Z,97725.89
2018-07-15T01:31:13.151Z,97732.05
2018-07-15T01:33:42.664Z,97730.02
2018-07-15T01:36:11.301Z,97724.20
2018-07-15T01:38:41.282Z,97724.12
2018-07-15T01:41:09.976Z,97717.70
2018-07-15T01:43:38.561Z,97714.75
2018-07-15T01:46:08.122Z,97713.16
2018-07-15T01:48:36.889Z,97723.38
2018-07-15T01:51:06.519Z,97716.02
2018-07-15T01:53:36.435Z,97715.98
2018-07-15T01:56:05.053Z,97715.86
2018-07-15T01:58:34.662Z,97715.64
2018-07-15T02:01:03.387Z,97712.02
2018-07-15T02:03:32.274Z,97712.05
2018-07-15T02:06:01.441Z,97710.24
2018-07-15T02:08:30.610Z,97711.77
2018-07-15T02:10:59.312Z,97705.28
2018-07-15T02:13:28.838Z,97703.92
2018-07-15T02:15:57.486Z,97708.94
2018-07-15T02:18:26.689Z,97704.05
2018-07-15T02:20:55.273Z,97700.67
2018-07-15T02:23:24.390Z,97699.14
2018-07-15T02:25:53.848Z,97698.00
2018-07-15T02:28:22.842Z,97702.55
2018-07-15T02:30:52.275Z,97713.53
2018-07-15T02:33:20.948Z,97716.66
2018-07-15T02:35:49.561Z,97720.33
2018-07-15T02:38:18.179Z,97716.93
2018-07-15T02:40:46.868Z,97720.50
2018-07-15T02:43:15.553Z,97719.97
2018-07-15T02:45:45.539Z,97721.44
2018-07-15T02:48:15.232Z,97724.85
2018-07-15T02:50:43.799Z,97721.37
2018-07-15T02:53:13.043Z,97727.27
2018-07-15T02:55:41.752Z,97725.59
2018-07-15T02:58:10.687Z,97726.25
2018-07-15T03:00:39.351Z,97730.84
2018-07-15T03:03:08.336Z,97730.17
2018-07-15T03:05:39.310Z,97726.77
2018-07-15T03:08:08.953Z,97723.86
2018-07-15T03:10:37.563Z,97727.15
2018-07-15T03:13:07.796Z,97723.17
2018-07-15T03:15:37.223Z,97721.73
2018-07-15T03:18:06.877Z,97721.73
2018-07-15T03:20:35.725Z,97720.48
2018-07-15T03:23:04.369Z,97721.39
2018-07-15T03:25:33.001Z,97719.80
2018-07-15T03:28:01.821Z,97713.67
2018-07-15T03:30:30.524Z,97711.17
2018-07-15T03:32:59.999Z,97712.88
2018-07-15T03:35:28.578Z,97710.04
2018-07-15T03:37:57.738Z,97712.77
2018-07-15T03:40:26.365Z,97710.27
2018-07-15T03:42:55.809Z,97710.98
2018-07-15T03:45:24.344Z,97710.16
2018-07-15T03:47:54.578Z,97703.23
2018-07-15T03:50:23.218Z,97706.52
2018-07-15T03:52:52.710Z,97701.86
2018-07-15T03:55:22.016Z,97699.70
2018-07-15T03:57:50.715Z,97692.33
2018-07-15T04:00:19.932Z,97696.30
2018-07-15T04:02:49.119Z,97699.03
2018-07-15T04:05:17.835Z,97698.34
2018-07-15T04:07:47.317Z,97704.36
2018-07-15T04:10:16.236Z,97703.11
2018-07-15T04:12:44.866Z,97699.33
2018-07-15T04:15:14.153Z,97695.12
2018-07-15T04:17:43.398Z,97697.28
2018-07-15T04:20:12.098Z,97699.22
2018-07-15T04:22:40.710Z,97698.91
2018-07-15T04:25:09.313Z,97701.19
2018-07-15T04:27:38.150Z,97696.11
2018-07-15T04:30:07.539Z,97695.99
2018-07-15T04:32:36.827Z,97693.27
2018-07-15T04:35:05.638Z,97696.79
2018-07-15T04:37:34.210Z,97699.70
2018-07-15T04:40:02.768Z,97699.48
2018-07-15T04:42:31.365Z,97704.36
2018-07-15T04:45:00.626Z,97714.80
2018-07-15T04:47:30.147Z,97711.40
2018-07-15T04:49:58.733Z,97710.91
2018-07-15T04:52:30.904Z,97711.13
2018-07-15T04:54:59.516Z,97706.36
2018-07-15T04:57:29.082Z,97705.45
2018-07-15T04:59:58.439Z,97708.41
2018-07-15T05:02:27.260Z,97711.02
2018-07-15T05:04:55.853Z,97712.71
2018-07-15T05:07:25.426Z,97714.53
2018-07-15T05:09:54.679Z,97718.39
2018-07-15T05:12:24.665Z,97648.88
2018-07-15T05:14:53.271Z,97714.25
2018-07-15T05:17:24.101Z,97719.09
2018-07-15T05:19:52.728Z,97717.94
2018-07-15T05:22:22.592Z,97715.68
2018-07-15T05:24:51.197Z,97723.25
2018-07-15T05:27:20.501Z,97723.23
2018-07-15T05:29:49.334Z,97723.63
2018-07-15T05:32:18.717Z,97720.88
2018-07-15T05:34:48.031Z,97724.45
2018-07-15T05:37:16.579Z,97719.63
2018-07-15T05:39:45.764Z,97724.05
2018-07-15T05:42:14.626Z,97726.97
2018-07-15T05:44:43.578Z,97722.08
2018-07-15T05:47:12.723Z,97722.08
2018-07-15T05:49:41.353Z,97723.95
2018-07-15T05:52:10.005Z,97723.16
2018-07-15T05:54:39.981Z,97722.69
2018-07-15T05:57:08.770Z,97723.89
2018-07-15T05:59:38.262Z,97730.81
2018-07-15T06:02:07.049Z,97733.06
2018-07-15T06:04:36.943Z,97726.93
2018-07-15T06:07:05.838Z,97738.19
2018-07-15T06:09:34.983Z,97730.97
2018-07-15T06:12:04.306Z,97724.98
2018-07-15T06:14:32.914Z,97727.84
2018-07-15T06:17:02.097Z,97727.22
2018-07-15T06:19:31.069Z,97731.71
2018-07-15T06:21:59.667Z,97730.86
2018-07-15T06:24:28.992Z,97733.04
2018-07-15T06:26:58.502Z,97731.42
2018-07-15T06:29:27.951Z,97731.77
2018-07-15T06:31:56.574Z,97727.81
2018-07-15T06:34:26.402Z,97728.01
2018-07-15T06:36:54.946Z,97723.16
2018-07-15T06:39:23.528Z,97730.30
2018-07-15T06:41:52.216Z,97726.95
2018-07-15T06:44:21.491Z,97729.37
2018-07-15T06:46:52.056Z,97728.52
2018-07-15T06:49:22.997Z,97726.81
2018-07-15T06:51:54.522Z,97726.67
2018-07-15T06:54:25.321Z,97729.71
2018-07-15T06:56:56.546Z,97721.11
2018-07-15T06:59:27.996Z,97719.39
2018-07-15T07:02:00.489Z,97712.36
2018-07-15T07:04:31.421Z,97713.20
2018-07-15T07:07:02.647Z,97717.95
2018-07-15T07:09:32.770Z,97716.52
2018-07-15T07:12:04.526Z,97717.89
2018-07-15T07:14:35.755Z,97616.66
2018-07-15T07:17:05.997Z,97697.81
2018-07-15T07:19:37.274Z,97709.58
2018-07-15T07:22:08.131Z,97705.41
2018-07-15T07:24:38.806Z,97710.14
2018-07-15T07:27:09.730Z,97708.84
2018-07-15T07:29:38.314Z,97707.26
2018-07-15T07:32:09.314Z,97711.52
2018-07-15T07:34:39.981Z,97708.98
2018-07-15T07:37:11.066Z,97713.84
2018-07-15T07:39:41.670Z,97712.02
2018-07-15T07:42:10.285Z,97704.61
2018-07-15T07:44:40.556Z,97710.66
2018-07-15T07:47:12.088Z,97707.64
2018-07-15T07:49:42.650Z,97707.09
2018-07-15T07:52:13.911Z,97708.16
2018-07-15T07:54:44.729Z,97701.34
2018-07-15T07:57:13.648Z,97702.26
2018-07-15T07:59:44.551Z,97701.59
2018-07-15T08:02:15.811Z,97702.11
2018-07-15T08:04:47.782Z,97703.13
2018-07-15T08:07:20.640Z,97701.88
2018-07-15T08:09:51.734Z,97698.38
2018-07-15T08:12:23.390Z,97704.05
2018-07-15T08:14:58.903Z,97701.58
2018-07-15T08:17:30.229Z,97695.18
2018-07-15T08:20:01.208Z,97698.26
2018-07-15T08:22:32.520Z,97706.98
2018-07-15T08:25:01.220Z,97705.47
2018-07-15T08:27:31.878Z,97704.81
2018-07-15T08:30:13.234Z,97703.71
2018-07-15T08:32:44.230Z,97706.08
2018-07-15T08:35:15.089Z,97709.58
2018-07-15T08:37:47.663Z,97708.19
2018-07-15T08:40:17.669Z,97708.99
2018-07-15T08:42:49.625Z,97710.98
2018-07-15T08:45:21.358Z,97707.87
2018-07-15T08:47:52.668Z,97707.50
2018-07-15T08:50:24.030Z,97705.00
2018-07-15T08:52:54.827Z,97696.16
2018-07-15T08:55:26.300Z,97702.85
2018-07-15T08:57:57.698Z,97700.85
2018-07-15T09:00:29.122Z,97702.44
2018-07-15T09:02:59.931Z,97701.08
2018-07-15T09:05:30.838Z,97695.53
2018-07-15T09:07:59.494Z,97697.11
2018-07-15T09:10:30.388Z,97696.88
2018-07-15T09:13:01.007Z,97693.67
2018-07-15T09:15:31.957Z,97686.97
2018-07-15T09:18:03.375Z,97684.74
2018-07-15T09:20:31.998Z,97685.34
2018-07-15T09:23:03.619Z,97677.39
2018-07-15T09:25:34.330Z,97674.48
2018-07-15T09:28:05.353Z,97671.06
2018-07-15T09:30:36.224Z,97676.87
2018-07-15T09:33:07.723Z,97671.36
2018-07-15T09:35:38.623Z,97670.18
2018-07-15T09:38:09.415Z,97669.48
2018-07-15T09:40:39.685Z,97667.86
2018-07-15T09:43:10.863Z,97664.11
2018-07-15T09:45:41.777Z,97664.80
2018-07-15T09:48:11.175Z,97657.61
2018-07-15T09:50:42.140Z,97660.81
2018-07-15T09:53:13.218Z,97661.97
2018-07-15T09:55:44.311Z,97649.70
2018-07-15T09:58:15.023Z,97655.13
2018-07-15T10:00:50.986Z,97646.40
2018-07-15T10:03:21.779Z,97641.97
2018-07-15T10:05:53.630Z,97632.73
2018-07-15T10:08:24.467Z,97630.33
2018-07-15T10:10:55.874Z,97627.32
2018-07-15T10:13:26.445Z,97628.70
2018-07-15T10:15:57.143Z,97624.18
2018-07-15T10:18:27.714Z,97616.05
2018-07-15T10:20:59.214Z,97608.61
2018-07-15T10:23:31.409Z,97606.89
2018-07-15T10:26:04.225Z,97605.61
2018-07-15T10:28:33.084Z,97605.17
2018-07-15T10:31:03.618Z,97594.55
2018-07-15T10:33:34.216Z,97596.35
2018-07-15T10:36:05.272Z,97594.53
2018-07-15T10:38:36.359Z,97585.52
2018-07-15T10:41:05.417Z,97590.34
2018-07-15T10:43:34.367Z,97577.81
2018-07-15T10:46:03.062Z,97583.61
2018-07-15T10:48:31.674Z,97588.44
2018-07-15T10:51:00.370Z,97584.73
2018-07-15T10:53:29.124Z,97585.53
2018-07-15T10:55:57.828Z,97579.73
2018-07-15T10:58:26.544Z,97583.25
2018-07-15T11:00:55.232Z,97588.42
2018-07-15T11:03:23.909Z,97592.69
2018-07-15T11:05:53.514Z,97603.77
2018-07-15T11:08:22.187Z,97603.09
2018-07-15T11:10:50.873Z,97600.46
2018-07-15T11:13:19.654Z,97603.80
2018-07-15T11:15:49.737Z,97601.50
2018-07-15T11:18:19.195Z,97597.67
2018-07-15T11:20:48.805Z,97603.28
2018-07-15T11:23:17.571Z,97601.72
2018-07-15T11:25:46.393Z,97602.17
2018-07-15T11:28:15.189Z,97608.31
2018-07-15T11:30:44.135Z,97607.72
2018-07-15T11:33:13.454Z,97605.83
2018-07-15T11:35:42.313Z,97611.84
2018-07-15T11:38:11.857Z,97616.97
2018-07-15T11:40:40.835Z,97625.18
2018-07-15T11:43:09.914Z,97640.98
2018-07-15T11:45:39.042Z,97646.91
2018-07-15T11:48:07.835Z,97656.51
2018-07-15T11:50:36.571Z,97670.02
2018-07-15T11:53:05.253Z,97671.08
2018-07-15T11:55:34.046Z,97668.23
2018-07-15T11:58:02.719Z,97665.98
2018-07-15T12:00:31.375Z,97664.33
2018-07-15T12:03:01.288Z,97659.38
2018-07-15T12:05:30.745Z,97657.02
2018-07-15T12:08:00.336Z,97644.08
2018-07-15T12:10:29.291Z,97645.70
2018-07-15T12:12:58.327Z,97640.77
2018-07-15T12:15:27.706Z,97637.62
2018-07-15T12:17:56.453Z,97646.75
2018-07-15T12:20:25.127Z,97645.25
2018-07-15T12:22:53.741Z,97654.44
2018-07-15T12:25:22.430Z,97658.08
2018-07-15T12:27:51.130Z,97656.56
2018-07-15T12:30:19.785Z,97658.02
2018-07-15T12:32:48.696Z,97653.52
2018-07-15T12:35:17.478Z,97679.01
2018-07-15T12:37:46.172Z,97689.17
2018-07-15T12:40:15.324Z,97692.63
2018-07-15T12:42:44.030Z,97697.13
2018-07-15T12:45:12.784Z,97698.98
2018-07-15T12:47:41.465Z,97693.80
2018-07-15T12:50:10.733Z,97680.62
2018-07-15T12:52:39.533Z,97684.31
2018-07-15T12:55:08.339Z,97681.57
2018-07-15T12:57:37.049Z,97661.20
2018-07-15T13:00:06.373Z,97644.92
2018-07-15T13:02:35.834Z,97633.77
2018-07-15T13:05:04.904Z,97622.72
2018-07-15T13:07:33.581Z,97611.73
2018-07-15T13:10:02.345Z,97611.65
2018-07-15T13:12:31.143Z,97597.61
2018-07-15T13:14:59.795Z,97604.10
2018-07-15T13:17:28.474Z,97590.38
2018-07-15T13:19:58.299Z,97581.69
2018-07-15T13:22:27.437Z,97573.09
2018-07-15T13:24:56.285Z,97577.70
2018-07-15T13:27:25.129Z,97592.77
2018-07-15T13:30:03.254Z,97584.30
2018-07-15T13:35:59.405Z,97589.08
2018-07-15T13:38:29.980Z,97583.34
2018-07-15T13:40:58.820Z,97581.67
2018-07-15T13:43:27.684Z,97583.92
2018-07-15T13:45:56.833Z,97587.73
2018-07-15T13:48:28.856Z,97588.95
2018-07-15T13:50:57.719Z,97596.58
2018-07-15T13:53:26.237Z,97600.37
2018-07-15T13:55:55.624Z,97605.16
2018-07-15T13:58:24.432Z,97607.92
2018-07-15T14:00:53.613Z,97613.25
2018-07-15T14:03:22.260Z,97611.07
2018-07-15T14:05:50.986Z,97604.77
2018-07-15T14:08:19.772Z,97614.03
2018-07-15T14:30:57.688Z,97601.62
2018-07-15T14:33:26.306Z,97592.98
2018-07-15T14:35:55.892Z,97596.30
2018-07-15T14:38:24.755Z,97603.00
2018-07-15T14:40:53.607Z,97599.25
2018-07-15T14:43:22.705Z,97600.81
2018-07-15T14:45:51.726Z,97595.33
2018-07-15T14:48:21.103Z,97596.69
2018-07-15T14:50:49.995Z,97597.91
2018-07-15T14:53:18.800Z,97596.14
2018-07-15T14:55:48.475Z,97592.60
2018-07-15T14:58:17.210Z,97587.65
2018-07-15T15:00:46.736Z,97590.02
2018-07-15T15:03:15.567Z,97592.95
2018-07-15T15:05:44.550Z,97587.84
2018-07-15T15:08:13.625Z,97590.59
2018-07-15T15:10:42.469Z,97599.66
2018-07-15T15:13:11.234Z,97604.36
2018-07-15T15:15:40.304Z,97605.34
2018-07-15T15:18:09.446Z,97609.47
2018-07-15T15:20:42.430Z,97615.56
2018-07-15T15:23:11.233Z,97605.36
2018-07-15T15:25:39.979Z,97599.23
2018-07-15T15:28:08.556Z,97586.45
2018-07-15T15:30:37.272Z,97583.86
2018-07-15T15:33:06.355Z,97590.72
2018-07-15T15:35:35.745Z,97596.99
2018-07-15T15:38:04.952Z,97600.70
2018-07-15T15:40:33.718Z,97602.64
2018-07-15T15:43:02.588Z,97607.37
2018-07-15T15:45:32.644Z,97599.19
2018-07-15T15:48:01.522Z,97598.22
2018-07-15T15:50:30.402Z,97598.83
2018-07-15T15:53:00.486Z,97599.23
2018-07-15T15:55:29.626Z,97602.56
2018-07-15T15:57:59.372Z,97599.83
2018-07-15T16:00:28.182Z,97602.77
2018-07-15T16:02:57.119Z,97602.77
2018-07-15T16:05:26.861Z,97608.23
2018-07-15T16:07:55.542Z,97603.09
2018-07-15T16:10:24.984Z,97589.77
2018-07-15T16:12:53.677Z,97582.91
2018-07-15T16:15:23.551Z,97573.67
2018-07-15T16:17:59.090Z,97571.68
2018-07-15T16:20:27.813Z,97576.63
2018-07-15T16:22:56.553Z,97574.27
2018-07-15T16:25:26.093Z,97575.25
2018-07-15T16:27:55.207Z,97572.48
2018-07-15T16:30:24.244Z,97569.72
2018-07-15T16:32:53.335Z,97565.00
2018-07-15T16:35:22.168Z,97575.42
2018-07-15T16:37:51.855Z,97580.73
2018-07-15T16:40:20.643Z,97582.39
2018-07-15T16:42:49.940Z,97573.38
2018-07-15T16:45:23.664Z,97574.61
2018-07-15T16:47:52.549Z,97565.53
2018-07-15T16:50:21.535Z,97567.55
2018-07-15T16:52:50.191Z,97564.33
2018-07-15T16:55:18.971Z,97559.61
2018-07-15T16:57:47.783Z,97572.57
2018-07-15T17:00:16.947Z,97564.13
2018-07-15T17:02:45.679Z,97562.63
2018-07-15T17:05:15.274Z,97568.09
2018-07-15T17:07:44.084Z,97572.57
2018-07-15T17:10:12.870Z,97575.48
2018-07-15T17:12:41.681Z,97575.04
2018-07-15T17:15:10.449Z,97578.39
2018-07-15T17:17:39.454Z,97579.38
2018-07-15T17:20:08.928Z,97583.30
2018-07-15T17:22:37.669Z,97578.00
2018-07-15T17:25:06.685Z,97569.57
2018-07-15T17:27:35.468Z,97565.84
2018-07-15T17:30:04.200Z,97568.96
2018-07-15T17:32:32.827Z,97571.14
2018-07-15T17:35:01.539Z,97577.96
2018-07-15T17:37:30.262Z,97577.03
2018-07-15T17:39:58.946Z,97578.77
2018-07-15T17:42:27.646Z,97582.23
2018-07-15T17:44:57.044Z,97583.25
2018-07-15T17:47:25.737Z,97586.61
2018-07-15T17:49:54.504Z,97585.01
2018-07-15T17:52:23.137Z,97583.56
2018-07-15T17:54:51.861Z,97588.50
2018-07-15T17:57:20.804Z,97586.77
2018-07-15T17:59:50.358Z,97588.77
2018-07-15T18:02:19.022Z,97585.21
2018-07-15T18:04:47.747Z,97592.29
2018-07-15T18:07:16.888Z,97598.58
2018-07-15T18:09:45.961Z,97593.52
2018-07-15T18:12:14.880Z,97592.63
2018-07-15T18:14:44.182Z,97586.44
2018-07-15T18:17:13.141Z,97602.14
2018-07-15T18:19:41.969Z,97598.13
2018-07-15T18:22:12.565Z,97590.64
2018-07-15T18:27:21.902Z,97584.67
2018-07-15T18:29:50.837Z,97584.84
2018-07-15T18:32:19.695Z,97577.94
2018-07-15T18:34:48.988Z,97581.44
2018-07-15T18:37:17.852Z,97579.82
2018-07-15T18:39:47.214Z,97574.88
2018-07-15T18:42:16.677Z,97575.63
2018-07-15T18:44:47.706Z,97569.14
2018-07-15T18:47:16.733Z,97571.30
2018-07-15T18:49:45.947Z,97567.02
2018-07-15T18:52:15.390Z,97576.70
2018-07-15T18:54:44.249Z,97566.53
2018-07-15T18:57:13.619Z,97568.49
2018-07-15T18:59:44.004Z,97572.20
2018-07-15T19:02:12.722Z,97567.59
2018-07-15T19:04:42.532Z,97558.73
2018-07-15T19:07:12.569Z,97567.56
2018-07-15T19:09:41.399Z,97564.44
2018-07-15T19:12:10.204Z,97564.44
2018-07-15T19:14:38.993Z,97563.81
2018-07-15T19:17:07.885Z,97563.19
2018-07-15T19:19:36.626Z,97569.64
2018-07-15T19:22:05.417Z,97587.86
2018-07-15T19:24:34.953Z,97590.81
2018-07-15T19:27:03.722Z,97588.53
2018-07-15T19:29:32.744Z,97591.33
2018-07-15T19:32:01.395Z,97585.27
2018-07-15T19:34:30.075Z,97596.51
2018-07-15T19:36:58.854Z,97596.44
2018-07-15T19:39:28.560Z,97605.24
2018-07-15T19:41:57.274Z,97604.19
2018-07-15T19:44:26.510Z,97614.34
2018-07-15T19:46:55.160Z,97612.08
2018-07-15T19:49:24.163Z,97613.91
2018-07-15T19:51:53.088Z,97615.20
2018-07-15T19:54:21.754Z,97618.01
2018-07-15T19:56:51.037Z,97623.28
2018-07-15T19:59:20.017Z,97618.95
2018-07-15T20:01:48.685Z,97609.38
2018-07-15T20:04:17.294Z,97613.44
2018-07-15T20:06:46.117Z,97623.60
2018-07-15T20:09:15.198Z,97625.18
2018-07-15T20:11:44.003Z,97629.20
2018-07-15T20:14:13.075Z,97623.96
2018-07-15T20:16:41.809Z,97624.77
2018-07-15T20:19:10.625Z,97616.95
2018-07-15T20:21:40.414Z,97619.69
2018-07-15T20:24:09.116Z,97627.91
2018-07-15T20:26:37.830Z,97627.62
2018-07-15T20:29:06.956Z,97620.41
2018-07-15T20:31:36.309Z,97621.83
2018-07-15T20:34:05.846Z,97611.06
2018-07-15T20:36:35.472Z,97614.83
2018-07-15T20:39:05.177Z,97617.28
2018-07-15T20:41:34.649Z,97617.48
2018-07-15T20:44:04.051Z,97625.64
2018-07-15T20:46:33.633Z,97624.82
2018-07-15T20:49:03.042Z,97628.45
2018-07-15T20:51:32.101Z,97621.29
2018-07-15T20:54:01.771Z,97620.71
2018-07-15T20:56:31.083Z,97615.50
2018-07-15T20:59:01.977Z,97610.81
2018-07-15T21:01:31.454Z,97612.34
2018-07-15T21:04:03.423Z,97613.72
2018-07-15T21:06:33.288Z,97608.48
2018-07-15T21:09:01.921Z,97613.38
2018-07-15T21:11:30.531Z,97618.40
2018-07-15T21:13:59.332Z,97611.43
2018-07-15T21:16:28.099Z,97621.17
2018-07-15T21:18:56.945Z,97627.44
2018-07-15T21:21:25.712Z,97637.17
2018-07-15T21:23:54.430Z,97638.45
2018-07-15T21:26:23.195Z,97641.25
2018-07-15T21:28:51.831Z,97635.28
2018-07-15T21:31:21.288Z,97636.52
2018-07-15T21:33:49.971Z,97641.22
2018-07-15T21:36:18.597Z,97637.98
2018-07-15T21:38:48.026Z,97635.31
2018-07-15T21:41:17.098Z,97635.17
2018-07-15T21:43:45.772Z,97631.72
2018-07-15T21:46:14.666Z,97629.34
2018-07-15T21:48:43.956Z,97628.02
2018-07-15T21:51:12.565Z,97625.28
2018-07-15T21:53:41.150Z,97623.87
2018-07-15T21:56:09.818Z,97621.56
2018-07-15T21:58:38.516Z,97621.34
2018-07-15T22:01:07.217Z,97618.83
2018-07-15T22:03:35.887Z,97614.44
2018-07-15T22:06:04.482Z,97613.57
2018-07-15T22:09:47.326Z,97610.08
2018-07-15T22:12:15.987Z,97601.41
2018-07-15T22:14:45.056Z,97608.17
2018-07-15T22:17:13.954Z,97618.28
2018-07-15T22:19:44.063Z,97619.95
2018-07-15T22:22:13.067Z,97631.79
2018-07-15T22:24:41.663Z,97634.18
2018-07-15T22:27:10.480Z,97623.58
2018-07-15T22:29:39.285Z,97618.80
2018-07-15T22:32:07.930Z,97611.96
2018-07-15T22:34:36.783Z,97620.94
2018-07-15T22:37:06.808Z,97621.95
2018-07-15T22:39:35.402Z,97618.78
2018-07-15T22:42:04.039Z,97616.75
2018-07-15T22:44:32.657Z,97614.27
2018-07-15T22:47:01.282Z,97610.09
2018-07-15T22:49:29.885Z,97617.80
2018-07-15T22:51:58.485Z,97615.64
2018-07-15T22:54:27.109Z,97619.95
2018-07-15T22:56:55.815Z,97615.86
2018-07-15T22:59:24.469Z,97612.38
2018-07-15T23:01:53.119Z,97604.39
2018-07-15T23:04:33.543Z,97604.53
2018-07-15T23:07:02.784Z,97607.70
2018-07-15T23:09:31.433Z,97614.39
2018-07-15T23:12:00.767Z,97605.11
2018-07-15T23:14:29.748Z,97616.63
2018-07-15T23:16:58.431Z,97620.44
2018-07-15T23:19:27.964Z,97625.04
2018-07-15T23:21:56.618Z,97625.31
2018-07-15T23:24:26.814Z,97614.98
2018-07-15T23:26:55.546Z,97620.81
2018-07-15T23:29:24.306Z,97623.47
2018-07-15T23:31:53.010Z,97618.00
2018-07-15T23:34:21.636Z,97629.48
2018-07-15T23:36:50.386Z,97630.56
2018-07-15T23:39:18.977Z,97630.30
2018-07-15T23:41:47.740Z,97636.95
2018-07-15T23:44:16.342Z,97630.70
2018-07-15T23:46:45.209Z,97643.73
2018-07-15T23:49:15.200Z,97643.73
2018-07-15T23:51:43.865Z,97640.75
2018-07-15T23:54:13.641Z,97638.75
2018-07-15T23:56:42.971Z,97633.78
2018-07-15T23:59:11.548Z,97627.47
